createdAt,value
2023-01-25T00:01:06.131Z,0.54
2023-01-25T00:03:32.702Z,0.57
2023-01-25T00:06:01.373Z,0.46
2023-01-25T00:08:28.189Z,0.46
2023-01-25T00:10:56.287Z,0.49
2023-01-25T00:13:23.939Z,0.52
2023-01-25T00:15:50.305Z,0.23
2023-01-25T00:18:16.683Z,0.31
2023-01-25T00:20:43.057Z,0.52
2023-01-25T00:23:09.433Z,0.65
2023-01-25T00:25:35.882Z,0.16
2023-01-25T00:28:02.264Z,0.19
2023-01-25T00:30:28.632Z,0.31
2023-01-25T00:33:33.006Z,0.35
2023-01-25T00:36:00.988Z,0.14
2023-01-25T00:38:34.469Z,0.25
2023-01-25T00:41:00.869Z,0.39
2023-01-25T00:43:27.246Z,0.53
2023-01-25T00:46:00.665Z,0.47
2023-01-25T00:48:27.067Z,0.47
2023-01-25T00:50:53.458Z,0.44
2023-01-25T00:53:19.834Z,0.43
2023-01-25T00:55:53.015Z,0.47
2023-01-25T00:58:19.404Z,0.13
2023-01-25T01:00:45.848Z,-0.22
2023-01-25T01:03:12.352Z,-0.24
2023-01-25T01:05:38.750Z,-0.19
2023-01-25T01:08:05.200Z,-0.21
2023-01-25T01:10:31.574Z,-0.05
2023-01-25T01:12:58.030Z,0.06
2023-01-25T01:15:24.402Z,0.21
2023-01-25T01:17:50.807Z,0.30
2023-01-25T01:20:17.173Z,0.27
2023-01-25T01:22:43.579Z,0.21
2023-01-25T01:25:10.887Z,0.32
2023-01-25T01:27:37.294Z,0.14
2023-01-25T01:30:04.039Z,0.28
2023-01-25T01:32:30.588Z,-0.05
2023-01-25T01:34:57.036Z,-0.13
2023-01-25T01:37:23.454Z,0.10
2023-01-25T01:39:49.824Z,0.15
2023-01-25T01:42:16.225Z,0.29
2023-01-25T01:44:51.015Z,0.11
2023-01-25T01:47:27.467Z,0.13
2023-01-25T01:49:57.166Z,0.19
2023-01-25T01:52:28.716Z,0.15
2023-01-25T01:55:18.096Z,0.15
2023-01-25T01:57:48.431Z,0.23
2023-01-25T02:00:21.298Z,0.26
2023-01-25T02:02:49.312Z,0.35
2023-01-25T02:05:30.697Z,0.10
2023-01-25T02:07:57.576Z,0.29
2023-01-25T02:10:25.729Z,0.31
2023-01-25T02:12:54.409Z,0.37
2023-01-25T02:15:20.900Z,0.09
2023-01-25T02:17:47.598Z,0.25
2023-01-25T02:20:37.436Z,0.12
2023-01-25T02:23:12.431Z,0.06
2023-01-25T02:25:39.990Z,0.15
2023-01-25T02:28:06.598Z,0.22
2023-01-25T02:30:33.931Z,0.23
2023-01-25T02:36:47.331Z,0.38
2023-01-25T02:39:20.063Z,0.26
2023-01-25T02:41:50.060Z,0.27
2023-01-25T02:44:20.339Z,0.21
2023-01-25T02:46:47.797Z,0.13
2023-01-25T02:49:15.224Z,0.23
2023-01-25T02:51:50.714Z,0.20
2023-01-25T02:54:18.442Z,0.13
2023-01-25T02:56:44.793Z,0.18
2023-01-25T02:59:13.208Z,0.27
2023-01-25T03:01:41.864Z,0.19
2023-01-25T03:04:08.832Z,0.17
2023-01-25T03:06:35.575Z,-0.05
2023-01-25T03:09:03.773Z,-0.08
2023-01-25T03:11:30.145Z,0.04
2023-01-25T03:13:56.489Z,-0.10
2023-01-25T03:16:22.923Z,-0.12
2023-01-25T03:18:54.050Z,-0.03
2023-01-25T03:21:21.763Z,0.03
2023-01-25T03:23:48.870Z,0.21
2023-01-25T03:26:19.691Z,0.11
2023-01-25T03:28:46.178Z,-0.09
2023-01-25T03:31:14.380Z,-0.08
2023-01-25T03:33:41.158Z,-0.04
2023-01-25T03:36:08.217Z,-0.04
2023-01-25T03:38:35.344Z,0.16
2023-01-25T03:41:02.142Z,0.26
2023-01-25T03:43:29.133Z,0.08
2023-01-25T03:45:57.897Z,0.02
2023-01-25T03:48:25.086Z,0.09
2023-01-25T03:50:57.608Z,0.01
2023-01-25T03:53:30.013Z,0.03
2023-01-25T03:55:59.002Z,0.02
2023-01-25T03:58:25.772Z,-0.06
2023-01-25T04:00:55.001Z,0.10
2023-01-25T04:03:21.594Z,0.06
2023-01-25T04:05:48.075Z,-0.07
2023-01-25T04:08:14.798Z,-0.01
2023-01-25T04:10:41.193Z,-0.07
2023-01-25T04:13:07.683Z,0.00
2023-01-25T04:15:34.141Z,0.02
2023-01-25T04:18:00.750Z,0.03
2023-01-25T04:20:27.138Z,0.10
2023-01-25T04:22:53.501Z,0.01
2023-01-25T04:25:19.945Z,-0.21
2023-01-25T04:27:46.544Z,-0.15
2023-01-25T04:30:13.130Z,-0.04
2023-01-25T04:32:39.644Z,-0.03
2023-01-25T04:35:06.255Z,-0.06
2023-01-25T04:37:32.671Z,-0.05
2023-01-25T04:39:59.081Z,-0.06
2023-01-25T04:42:26.613Z,-0.01
2023-01-25T04:44:53.001Z,-0.02
2023-01-25T04:47:19.403Z,0.03
2023-01-25T04:49:45.817Z,-0.02
2023-01-25T04:52:12.180Z,-0.01
2023-01-25T04:54:38.637Z,-0.05
2023-01-25T04:57:05.444Z,-0.10
2023-01-25T04:59:31.899Z,-0.32
2023-01-25T05:01:58.352Z,-0.14
2023-01-25T05:04:24.786Z,-0.24
2023-01-25T05:06:51.165Z,-0.17
2023-01-25T05:09:17.642Z,-0.19
2023-01-25T05:11:44.080Z,-0.18
2023-01-25T05:14:10.559Z,-0.40
2023-01-25T05:16:36.985Z,-0.17
2023-01-25T05:19:03.682Z,-0.19
2023-01-25T05:21:48.675Z,-0.13
2023-01-25T05:24:15.150Z,-0.12
2023-01-25T05:27:00.204Z,-0.12
2023-01-25T05:29:31.509Z,-0.19
2023-01-25T05:31:58.832Z,-0.19
2023-01-25T05:34:26.096Z,-0.17
2023-01-25T05:36:52.623Z,-0.11
2023-01-25T05:39:19.012Z,-0.44
2023-01-25T05:41:45.381Z,-0.32
2023-01-25T05:44:11.926Z,-0.39
2023-01-25T05:46:38.360Z,-0.50
2023-01-25T05:49:05.170Z,-0.56
2023-01-25T05:51:31.589Z,-0.45
2023-01-25T05:53:58.345Z,-0.44
2023-01-25T05:56:24.868Z,-0.51
2023-01-25T05:58:57.952Z,-0.49
2023-01-25T06:01:25.558Z,-0.38
2023-01-25T06:03:52.379Z,-0.33
2023-01-25T06:06:18.796Z,-0.27
2023-01-25T06:08:45.225Z,-0.31
2023-01-25T06:11:14.564Z,-0.48
2023-01-25T06:13:41.957Z,-0.62
2023-01-25T06:16:09.000Z,-0.60
2023-01-25T06:18:35.830Z,-0.52
2023-01-25T06:21:03.010Z,-0.44
2023-01-25T06:23:30.053Z,-0.84
2023-01-25T06:26:08.049Z,-0.98
2023-01-25T06:28:36.141Z,-0.71
2023-01-25T06:31:08.628Z,-0.49
2023-01-25T06:33:35.669Z,-0.46
2023-01-25T06:36:06.342Z,-0.96
2023-01-25T06:38:33.487Z,-0.69
2023-01-25T06:41:01.308Z,-1.24
2023-01-25T06:43:28.355Z,-0.89
2023-01-25T06:45:58.580Z,-0.63
2023-01-25T06:48:25.469Z,-0.67
2023-01-25T06:50:57.102Z,-0.63
2023-01-25T06:53:28.488Z,-0.56
2023-01-25T06:56:02.395Z,-0.83
2023-01-25T06:58:29.585Z,-0.68
2023-01-25T07:01:04.007Z,-0.71
2023-01-25T07:03:30.872Z,-0.89
2023-01-25T07:06:00.872Z,-0.93
2023-01-25T07:08:28.175Z,-1.10
2023-01-25T07:10:56.570Z,-0.86
2023-01-25T07:13:24.557Z,-0.69
2023-01-25T07:15:54.958Z,-0.45
2023-01-25T07:18:21.397Z,-0.47
2023-01-25T07:20:47.904Z,-0.48
2023-01-25T07:23:14.274Z,-0.53
2023-01-25T07:25:45.656Z,-0.58
2023-01-25T07:28:12.060Z,-0.64
2023-01-25T07:30:38.518Z,-0.53
2023-01-25T07:33:04.873Z,-0.52
2023-01-25T07:35:32.287Z,-0.35
2023-01-25T07:37:58.816Z,-0.28
2023-01-25T07:40:25.333Z,-0.23
2023-01-25T07:42:52.240Z,-0.17
2023-01-25T07:45:19.119Z,-0.18
2023-01-25T07:47:45.515Z,-0.40
2023-01-25T07:50:12.113Z,-0.35
2023-01-25T07:52:38.750Z,-0.57
2023-01-25T07:55:05.725Z,-0.89
2023-01-25T07:57:32.117Z,-0.78
2023-01-25T07:59:58.502Z,-0.86
2023-01-25T08:02:24.992Z,-0.89
2023-01-25T08:04:51.996Z,-0.89
2023-01-25T08:07:20.069Z,-1.22
2023-01-25T08:09:46.444Z,-0.96
2023-01-25T08:12:12.860Z,-0.71
2023-01-25T08:14:39.256Z,-0.61
2023-01-25T08:17:05.640Z,-0.57
2023-01-25T08:19:32.053Z,-0.50
2023-01-25T08:21:58.440Z,-0.58
2023-01-25T08:24:25.642Z,-0.65
2023-01-25T08:26:52.367Z,-0.59
2023-01-25T08:29:18.841Z,-0.50
2023-01-25T08:31:45.382Z,-0.68
2023-01-25T08:34:11.973Z,-0.63
2023-01-25T08:36:38.416Z,-0.50
2023-01-25T08:39:07.256Z,-0.45
2023-01-25T08:41:35.284Z,-0.38
2023-01-25T08:44:01.765Z,-0.56
2023-01-25T08:46:31.595Z,-0.47
2023-01-25T08:48:59.700Z,-0.84
2023-01-25T08:51:26.688Z,-0.76
2023-01-25T08:53:53.073Z,-0.77
2023-01-25T08:56:19.795Z,-0.62
2023-01-25T08:58:47.790Z,-0.66
2023-01-25T09:01:16.380Z,-0.63
2023-01-25T09:03:44.923Z,-0.60
2023-01-25T09:06:11.844Z,-0.79
2023-01-25T09:08:38.465Z,-0.63
2023-01-25T09:11:09.916Z,-0.63
2023-01-25T09:13:36.332Z,-0.57
2023-01-25T09:16:08.231Z,-0.51
2023-01-25T09:18:35.869Z,-0.60
2023-01-25T09:21:07.165Z,-0.76
2023-01-25T09:23:40.060Z,-0.66
2023-01-25T09:26:17.867Z,-0.61
2023-01-25T09:28:50.843Z,-0.61
2023-01-25T09:31:22.127Z,-0.66
2023-01-25T09:33:50.694Z,-0.44
2023-01-25T09:36:17.119Z,-0.40
2023-01-25T09:38:43.509Z,-0.46
2023-01-25T09:41:33.668Z,-0.28
2023-01-25T09:44:35.600Z,-0.45
2023-01-25T09:47:05.792Z,-0.44
2023-01-25T09:49:51.007Z,-0.60
2023-01-25T09:52:31.003Z,-0.97
2023-01-25T09:54:57.838Z,-0.92
2023-01-25T09:57:31.991Z,-1.18
2023-01-25T10:00:02.079Z,-1.01
2023-01-25T10:02:36.944Z,-0.76
2023-01-25T10:05:15.736Z,-0.57
2023-01-25T10:08:03.319Z,-0.49
2023-01-25T10:10:36.549Z,-0.43
2023-01-25T10:13:03.089Z,-0.47
2023-01-25T10:15:32.964Z,-0.54
2023-01-25T10:18:04.169Z,-0.44
2023-01-25T10:20:40.818Z,-0.29
2023-01-25T10:23:19.299Z,-0.39
2023-01-25T10:25:49.956Z,-0.14
2023-01-25T10:28:31.418Z,-0.51
2023-01-25T10:31:05.509Z,-0.48
2023-01-25T10:33:36.654Z,-0.39
2023-01-25T10:36:04.800Z,-0.34
2023-01-25T10:38:37.917Z,-0.29
2023-01-25T10:41:12.334Z,-0.33
2023-01-25T10:43:38.978Z,-0.59
2023-01-25T10:46:18.215Z,-0.67
2023-01-25T10:48:44.627Z,-0.69
2023-01-25T10:51:29.025Z,-0.92
2023-01-25T10:54:01.598Z,-0.77
2023-01-25T10:56:28.394Z,-1.12
2023-01-25T10:59:07.382Z,-0.84
2023-01-25T11:01:36.272Z,-0.80
2023-01-25T11:04:03.272Z,-0.83
2023-01-25T11:06:46.566Z,-0.87
2023-01-25T11:09:34.474Z,-0.77
2023-01-25T11:12:03.918Z,-0.77
2023-01-25T11:14:31.993Z,-0.81
2023-01-25T11:16:59.939Z,-1.10
2023-01-25T11:19:36.351Z,-1.17
2023-01-25T11:22:24.482Z,-1.24
2023-01-25T11:24:50.980Z,-1.10
2023-01-25T11:27:25.124Z,-1.03
2023-01-25T11:30:11.196Z,-0.96
2023-01-25T11:32:41.370Z,-0.90
2023-01-25T11:35:22.709Z,-0.95
2023-01-25T11:38:07.874Z,-0.79
2023-01-25T11:40:40.361Z,-0.69
2023-01-25T11:43:42.323Z,-0.59
2023-01-25T11:46:13.741Z,-0.89
2023-01-25T11:48:58.980Z,-0.74
2023-01-25T11:51:32.422Z,-0.61
2023-01-25T11:54:26.641Z,-0.88
2023-01-25T11:57:02.160Z,-0.64
2023-01-25T11:59:54.147Z,-0.61
2023-01-25T12:02:53.779Z,-0.38
2023-01-25T12:05:57.213Z,-0.20
2023-01-25T12:08:44.877Z,-0.19
2023-01-25T12:11:26.317Z,-0.17
2023-01-25T12:14:09.361Z,-0.31
2023-01-25T12:16:47.744Z,-0.74
2023-01-25T12:19:34.283Z,-0.39
2023-01-25T12:22:38.127Z,-0.44
2023-01-25T12:25:36.864Z,-0.30
2023-01-25T12:28:14.105Z,-0.14
2023-01-25T12:31:00.976Z,-0.20
2023-01-25T12:33:38.734Z,-0.36
2023-01-25T12:36:11.791Z,-0.29
2023-01-25T12:38:43.014Z,-0.27
2023-01-25T12:41:30.554Z,-0.45
2023-01-25T12:44:02.994Z,-0.32
2023-01-25T12:46:55.762Z,-0.09
2023-01-25T12:49:31.183Z,-0.22
2023-01-25T12:52:00.339Z,-0.34
2023-01-25T12:54:36.224Z,-0.40
2023-01-25T12:57:25.840Z,-0.61
2023-01-25T13:00:31.266Z,-0.61
2023-01-25T13:03:36.564Z,-0.61
2023-01-25T13:06:17.292Z,-0.97
2023-01-25T13:08:52.591Z,-1.09
2023-01-25T13:11:23.349Z,-0.82
2023-01-25T13:13:49.981Z,-0.56
2023-01-25T13:16:33.668Z,-0.59
2023-01-25T13:19:00.161Z,-0.28
2023-01-25T13:21:44.941Z,-0.44
2023-01-25T13:24:15.806Z,-0.56
2023-01-25T13:26:52.826Z,-0.41
2023-01-25T13:29:49.126Z,-0.31
2023-01-25T13:32:24.627Z,-0.27
2023-01-25T13:34:51.005Z,-0.33
2023-01-25T13:37:29.472Z,-0.37
2023-01-25T13:39:58.219Z,-0.74
2023-01-25T13:42:26.859Z,-0.64
2023-01-25T13:45:00.153Z,-0.50
2023-01-25T13:47:29.954Z,-0.55
2023-01-25T13:49:59.300Z,-0.38
2023-01-25T13:52:26.958Z,-0.62
2023-01-25T13:54:57.509Z,-0.86
2023-01-25T13:57:26.860Z,-0.78
2023-01-25T14:00:11.501Z,-1.06
2023-01-25T14:02:39.424Z,-0.79
2023-01-25T14:05:07.827Z,-0.52
2023-01-25T14:07:36.909Z,-0.62
2023-01-25T14:10:08.913Z,-0.38
2023-01-25T14:12:41.920Z,-0.35
2023-01-25T14:15:32.203Z,-0.44
2023-01-25T14:18:19.195Z,-0.17
2023-01-25T14:20:50.812Z,-0.56
2023-01-25T14:23:27.392Z,-0.38
2023-01-25T14:25:55.177Z,-0.61
2023-01-25T14:28:21.942Z,-0.52
2023-01-25T14:30:53.317Z,-0.42
2023-01-25T14:33:26.364Z,-0.35
2023-01-25T14:35:57.329Z,-0.40
2023-01-25T14:38:31.030Z,-0.56
2023-01-25T14:41:20.549Z,-0.46
2023-01-25T14:43:52.813Z,-0.53
2023-01-25T14:46:20.055Z,-0.59
2023-01-25T14:48:47.020Z,-0.73
2023-01-25T14:51:31.677Z,-0.80
2023-01-25T14:54:05.034Z,-0.61
2023-01-25T14:56:35.336Z,-0.69
2023-01-25T14:59:01.955Z,-0.55
2023-01-25T15:01:41.236Z,-0.59
2023-01-25T15:04:12.557Z,-0.56
2023-01-25T15:07:16.692Z,-0.89
2023-01-25T15:10:01.447Z,-0.76
2023-01-25T15:12:30.269Z,-0.97
2023-01-25T15:14:57.759Z,-1.05
2023-01-25T15:17:42.940Z,-0.84
2023-01-25T15:20:38.396Z,-0.54
2023-01-25T15:23:24.252Z,-0.56
2023-01-25T15:25:50.603Z,-0.67
2023-01-25T15:28:16.987Z,-0.73
2023-01-25T15:30:43.482Z,-0.66
2023-01-25T15:33:29.099Z,-0.67
2023-01-25T15:35:55.930Z,-0.70
2023-01-25T15:38:22.576Z,-0.59
2023-01-25T15:40:49.170Z,-0.58
2023-01-25T15:43:17.406Z,-0.75
2023-01-25T15:45:44.844Z,-0.86
2023-01-25T15:48:16.654Z,-0.74
2023-01-25T15:50:43.110Z,-0.62
2023-01-25T15:53:16.885Z,-0.94
2023-01-25T15:55:45.044Z,-0.61
2023-01-25T15:58:14.853Z,-0.59
2023-01-25T16:00:41.841Z,-0.42
2023-01-25T16:03:08.444Z,-0.50
2023-01-25T16:05:34.873Z,-0.84
2023-01-25T16:08:01.241Z,-0.86
2023-01-25T16:10:27.664Z,-0.86
2023-01-25T16:12:54.107Z,-0.66
2023-01-25T16:15:20.503Z,-0.81
2023-01-25T16:17:46.933Z,-0.74
2023-01-25T16:20:16.926Z,-0.77
2023-01-25T16:22:43.347Z,-0.86
2023-01-25T16:25:09.890Z,-0.84
2023-01-25T16:27:36.343Z,-0.64
2023-01-25T16:30:04.535Z,-0.63
2023-01-25T16:32:30.921Z,-0.73
2023-01-25T16:34:57.295Z,-0.70
2023-01-25T16:37:23.763Z,-0.63
2023-01-25T16:39:52.467Z,-0.69
2023-01-25T16:42:20.626Z,-1.06
2023-01-25T16:44:49.008Z,-0.98
2023-01-25T16:47:15.495Z,-0.86
2023-01-25T16:49:41.875Z,-0.73
2023-01-25T16:52:10.725Z,-0.85
2023-01-25T16:54:37.322Z,-1.15
2023-01-25T16:57:15.082Z,-1.05
2023-01-25T16:59:46.041Z,-0.89
2023-01-25T17:02:12.823Z,-1.07
2023-01-25T17:04:39.291Z,-1.23
2023-01-25T17:07:05.895Z,-1.12
2023-01-25T17:09:32.477Z,-0.92
2023-01-25T17:11:58.873Z,-1.14
2023-01-25T17:14:25.264Z,-1.28
2023-01-25T17:16:55.333Z,-0.91
2023-01-25T17:19:21.825Z,-1.30
2023-01-25T17:21:48.432Z,-0.99
2023-01-25T17:24:17.376Z,-0.92
2023-01-25T17:26:43.858Z,-0.87
2023-01-25T17:29:10.360Z,-0.85
2023-01-25T17:31:37.579Z,-1.22
2023-01-25T17:34:07.350Z,-1.28
2023-01-25T17:36:34.209Z,-0.96
2023-01-25T17:39:04.976Z,-0.83
2023-01-25T17:41:31.892Z,-0.79
2023-01-25T17:43:58.391Z,-0.88
2023-01-25T17:46:30.070Z,-0.81
2023-01-25T17:48:57.492Z,-0.88
2023-01-25T17:51:25.146Z,-0.75
2023-01-25T17:53:52.885Z,-0.77
2023-01-25T17:56:20.021Z,-1.06
2023-01-25T17:58:46.774Z,-1.22
2023-01-25T18:01:20.404Z,-1.25
2023-01-25T18:03:47.838Z,-1.24
2023-01-25T18:06:18.825Z,-1.18
2023-01-25T18:08:48.100Z,-1.18
2023-01-25T18:11:16.847Z,-0.99
2023-01-25T18:13:45.894Z,-1.02
2023-01-25T18:16:12.635Z,-1.16
2023-01-25T18:18:40.404Z,-0.92
2023-01-25T18:21:09.666Z,-0.84
2023-01-25T18:23:37.240Z,-0.86
2023-01-25T18:26:05.434Z,-0.95
2023-01-25T18:28:32.543Z,-1.00
2023-01-25T18:31:01.232Z,-0.98
2023-01-25T18:33:27.759Z,-0.98
2023-01-25T18:35:55.104Z,-1.32
2023-01-25T18:38:21.500Z,-1.10
2023-01-25T18:40:47.972Z,-0.90
2023-01-25T18:43:16.403Z,-0.83
2023-01-25T18:45:43.804Z,-0.86
2023-01-25T18:48:13.233Z,-0.92
2023-01-25T18:50:41.203Z,-0.96
2023-01-25T18:53:09.317Z,-1.47
2023-01-25T18:55:36.778Z,-1.30
2023-01-25T18:58:04.423Z,-1.37
2023-01-25T19:00:34.796Z,-1.21
2023-01-25T19:03:01.228Z,-1.38
2023-01-25T19:05:27.717Z,-1.06
2023-01-25T19:07:54.239Z,-1.12
2023-01-25T19:10:20.684Z,-1.36
2023-01-25T19:12:47.139Z,-1.05
2023-01-25T19:15:13.660Z,-1.18
2023-01-25T19:17:40.079Z,-1.32
2023-01-25T19:20:06.802Z,-1.05
2023-01-25T19:22:33.435Z,-1.12
2023-01-25T19:24:59.827Z,-1.22
2023-01-25T19:27:26.888Z,-1.19
2023-01-25T19:29:53.313Z,-1.21
2023-01-25T19:32:19.836Z,-1.23
2023-01-25T19:34:46.305Z,-1.37
2023-01-25T19:37:12.692Z,-1.18
2023-01-25T19:39:39.050Z,-1.14
2023-01-25T19:42:06.832Z,-0.87
2023-01-25T19:44:33.196Z,-0.89
2023-01-25T19:46:59.560Z,-0.93
2023-01-25T19:49:26.005Z,-0.87
2023-01-25T19:51:55.167Z,-0.81
2023-01-25T19:54:22.902Z,-1.43
2023-01-25T19:56:49.603Z,-1.00
2023-01-25T19:59:18.572Z,-0.75
2023-01-25T20:01:46.087Z,-0.61
2023-01-25T20:04:14.709Z,-0.63
2023-01-25T20:06:41.745Z,-0.59
2023-01-25T20:09:08.466Z,-0.68
2023-01-25T20:11:34.915Z,-0.77
2023-01-25T20:14:03.698Z,-0.86
2023-01-25T20:16:32.120Z,-0.86
2023-01-25T20:18:59.356Z,-1.03
2023-01-25T20:21:26.821Z,-0.98
2023-01-25T20:23:57.915Z,-0.94
2023-01-25T20:26:33.181Z,-1.27
2023-01-25T20:29:00.249Z,-1.18
2023-01-25T20:31:29.474Z,-1.23
2023-01-25T20:34:01.644Z,-1.46
2023-01-25T20:36:28.763Z,-1.33
2023-01-25T20:38:55.420Z,-1.11
2023-01-25T20:41:22.340Z,-1.11
2023-01-25T20:43:53.787Z,-0.87
2023-01-25T20:46:21.568Z,-0.91
2023-01-25T20:48:48.346Z,-0.83
2023-01-25T20:51:16.919Z,-1.02
2023-01-25T20:53:45.026Z,-1.45
2023-01-25T20:56:13.049Z,-1.54
2023-01-25T20:58:39.620Z,-1.20
2023-01-25T21:01:16.998Z,-1.23
2023-01-25T21:03:43.449Z,-1.23
2023-01-25T21:06:09.959Z,-1.04
2023-01-25T21:08:36.807Z,-0.94
2023-01-25T21:11:03.197Z,-1.04
2023-01-25T21:13:29.817Z,-0.81
2023-01-25T21:16:04.371Z,-0.76
2023-01-25T21:18:42.805Z,-0.90
2023-01-25T21:21:14.082Z,-0.92
2023-01-25T21:23:42.492Z,-0.93
2023-01-25T21:26:13.659Z,-1.03
2023-01-25T21:28:40.107Z,-1.00
2023-01-25T21:31:14.059Z,-1.09
2023-01-25T21:33:40.577Z,-1.12
2023-01-25T21:36:08.622Z,-1.18
2023-01-25T21:38:36.151Z,-1.17
2023-01-25T21:41:03.783Z,-1.26
2023-01-25T21:43:30.252Z,-1.33
2023-01-25T21:46:14.730Z,-1.36
2023-01-25T21:48:59.802Z,-1.82
2023-01-25T21:51:35.231Z,-1.73
2023-01-25T21:54:01.699Z,-1.43
2023-01-25T21:56:28.927Z,-1.86
2023-01-25T21:58:55.328Z,-1.60
2023-01-25T22:01:22.284Z,-1.83
2023-01-25T22:03:50.135Z,-1.69
2023-01-25T22:06:17.473Z,-1.56
2023-01-25T22:08:44.639Z,-1.29
2023-01-25T22:11:11.304Z,-1.21
2023-01-25T22:13:38.231Z,-1.28
2023-01-25T22:16:06.953Z,-1.25
2023-01-25T22:18:35.818Z,-1.43
2023-01-25T22:21:04.230Z,-1.40
2023-01-25T22:23:30.827Z,-1.40
2023-01-25T22:26:09.006Z,-1.29
2023-01-25T22:28:48.518Z,-1.67
2023-01-25T22:31:22.659Z,-1.83
2023-01-25T22:33:49.926Z,-1.61
2023-01-25T22:36:17.554Z,-1.52
2023-01-25T22:38:44.178Z,-1.44
2023-01-25T22:41:16.771Z,-1.50
2023-01-25T22:43:43.744Z,-1.50
2023-01-25T22:46:15.223Z,-1.90
2023-01-25T22:48:41.707Z,-1.84
2023-01-25T22:51:16.696Z,-1.85
2023-01-25T22:53:43.311Z,-1.93
2023-01-25T22:56:18.804Z,-1.94
2023-01-25T22:58:45.957Z,-1.73
2023-01-25T23:01:15.645Z,-1.86
2023-01-25T23:03:42.519Z,-1.79
2023-01-25T23:06:12.476Z,-1.76
2023-01-25T23:08:40.312Z,-1.81
2023-01-25T23:11:18.626Z,-1.74
2023-01-25T23:14:05.652Z,-1.84
2023-01-25T23:16:32.957Z,-1.88
2023-01-25T23:18:59.890Z,-1.91
2023-01-25T23:21:27.786Z,-1.87
2023-01-25T23:23:55.296Z,-2.03
2023-01-25T23:26:22.274Z,-2.02
2023-01-25T23:28:53.663Z,-1.86
2023-01-25T23:31:21.758Z,-1.77
2023-01-25T23:33:53.289Z,-1.81
2023-01-25T23:36:27.951Z,-1.66
2023-01-25T23:38:55.149Z,-1.54
2023-01-25T23:41:22.756Z,-1.60
2023-01-25T23:43:50.001Z,-1.70
2023-01-25T23:46:17.301Z,-1.68
2023-01-25T23:48:44.682Z,-1.57
2023-01-25T23:51:11.500Z,-1.89
2023-01-25T23:53:38.847Z,-1.68
2023-01-25T23:56:13.673Z,-1.57
2023-01-25T23:58:40.410Z,-1.47
